createdAt,value
2018-08-11T00:00:15.218Z,2.77
2018-08-11T00:02:43.639Z,2.87
2018-08-11T00:05:12.108Z,2.67
2018-08-11T00:07:40.586Z,2.60
2018-08-11T00:10:09.504Z,3.07
2018-08-11T00:12:38.322Z,2.43
2018-08-11T00:15:09.132Z,2.73
2018-08-11T00:17:37.603Z,2.27
2018-08-11T00:20:07.970Z,2.40
2018-08-11T00:22:36.468Z,2.70
2018-08-11T00:25:05.822Z,2.70
2018-08-11T00:27:34.352Z,2.57
2018-08-11T00:30:03.467Z,3.40
2018-08-11T00:32:31.923Z,5.40
2018-08-11T00:35:05.188Z,4.20
2018-08-11T00:37:33.772Z,4.03
2018-08-11T00:40:02.216Z,3.00
2018-08-11T00:42:30.663Z,2.50
2018-08-11T00:44:59.161Z,2.70
2018-08-11T00:47:27.796Z,2.60
2018-08-11T00:49:56.341Z,2.30
2018-08-11T00:52:24.803Z,2.73
2018-08-11T00:54:53.292Z,3.10
2018-08-11T00:57:21.712Z,2.80
2018-08-11T00:59:50.177Z,2.77
2018-08-11T01:02:18.602Z,2.23
2018-08-11T01:04:47.010Z,2.60
2018-08-11T01:07:15.536Z,2.77
2018-08-11T01:09:44.109Z,2.80
2018-08-11T01:12:12.575Z,2.57
2018-08-11T01:14:40.996Z,3.07
2018-08-11T01:17:09.481Z,3.00
2018-08-11T01:19:37.932Z,2.77
2018-08-11T01:22:06.396Z,3.13
2018-08-11T01:24:34.909Z,2.53
2018-08-11T01:27:03.383Z,2.87
2018-08-11T01:29:31.884Z,3.23
2018-08-11T01:32:00.348Z,3.00
2018-08-11T01:34:33.821Z,3.10
2018-08-11T01:37:02.230Z,2.60
2018-08-11T01:39:30.610Z,3.27
2018-08-11T01:41:59.165Z,2.77
2018-08-11T01:44:27.650Z,2.40
2018-08-11T01:46:56.032Z,2.67
2018-08-11T01:49:24.423Z,2.70
2018-08-11T01:51:52.888Z,2.90
2018-08-11T01:54:21.306Z,2.67
2018-08-11T01:56:49.749Z,3.47
2018-08-11T01:59:18.232Z,2.80
2018-08-11T02:01:46.676Z,2.70
2018-08-11T02:04:15.196Z,2.83
2018-08-11T02:06:43.612Z,3.20
2018-08-11T02:09:12.173Z,3.17
2018-08-11T02:11:40.912Z,2.80
2018-08-11T02:14:09.750Z,2.77
2018-08-11T02:16:38.405Z,2.67
2018-08-11T02:19:06.861Z,10.03
2018-08-11T02:21:35.379Z,4.97
2018-08-11T02:24:03.980Z,5.33
2018-08-11T02:26:32.357Z,8.77
2018-08-11T02:29:00.917Z,12.73
2018-08-11T02:31:29.345Z,14.70
2018-08-11T02:33:57.913Z,5.90
2018-08-11T02:36:26.337Z,4.73
2018-08-11T02:38:54.736Z,3.47
2018-08-11T02:41:23.255Z,3.50
2018-08-11T02:43:51.663Z,3.00
2018-08-11T02:46:20.140Z,3.13
2018-08-11T02:48:48.637Z,3.10
2018-08-11T02:51:17.129Z,3.17
2018-08-11T02:53:45.540Z,3.23
2018-08-11T02:56:13.971Z,2.80
2018-08-11T02:58:42.413Z,3.17
2018-08-11T03:01:10.807Z,3.00
2018-08-11T03:03:39.186Z,3.40
2018-08-11T03:06:08.557Z,3.10
2018-08-11T03:08:36.932Z,3.20
2018-08-11T03:11:05.865Z,3.87
2018-08-11T03:13:34.290Z,2.87
2018-08-11T03:16:02.645Z,3.20
2018-08-11T03:18:31.085Z,3.00
2018-08-11T03:20:59.503Z,3.40
2018-08-11T03:23:27.868Z,3.20
2018-08-11T03:25:56.289Z,3.10
2018-08-11T03:28:24.734Z,3.03
2018-08-11T03:30:53.133Z,3.40
2018-08-11T03:33:21.624Z,3.10
2018-08-11T03:35:49.992Z,3.27
2018-08-11T03:38:18.421Z,3.43
2018-08-11T03:40:46.895Z,3.60
2018-08-11T03:43:15.285Z,3.70
2018-08-11T03:45:44.360Z,3.10
2018-08-11T03:48:12.798Z,2.63
2018-08-11T03:50:41.162Z,2.90
2018-08-11T03:53:09.628Z,3.03
2018-08-11T03:55:38.104Z,3.27
2018-08-11T03:58:06.525Z,3.00
2018-08-11T04:00:34.939Z,2.70
2018-08-11T04:03:03.318Z,2.60
2018-08-11T04:05:31.753Z,3.03
2018-08-11T04:08:00.138Z,3.20
2018-08-11T04:10:28.548Z,2.97
2018-08-11T04:12:57.079Z,2.83
2018-08-11T04:15:25.593Z,2.87
2018-08-11T04:17:54.050Z,3.00
2018-08-11T04:20:22.437Z,3.10
2018-08-11T04:22:50.894Z,3.00
2018-08-11T04:25:19.256Z,3.40
2018-08-11T04:27:47.662Z,2.50
2018-08-11T04:30:16.264Z,3.53
2018-08-11T04:32:44.660Z,2.70
2018-08-11T04:35:13.272Z,3.00
2018-08-11T04:37:41.802Z,2.83
2018-08-11T04:40:10.206Z,2.50
2018-08-11T04:42:38.659Z,3.20
2018-08-11T04:45:07.597Z,2.80
2018-08-11T04:47:36.063Z,3.50
2018-08-11T04:50:04.802Z,2.57
2018-08-11T04:52:33.349Z,3.10
2018-08-11T04:55:01.761Z,2.50
2018-08-11T04:57:30.220Z,2.63
2018-08-11T04:59:58.662Z,3.13
2018-08-11T05:02:27.148Z,2.80
2018-08-11T05:04:55.576Z,3.10
2018-08-11T05:07:23.998Z,2.80
2018-08-11T05:09:52.444Z,2.77
2018-08-11T05:12:21.180Z,2.80
2018-08-11T05:14:49.713Z,3.03
2018-08-11T05:17:18.183Z,3.30
2018-08-11T05:19:46.600Z,2.83
2018-08-11T05:22:15.080Z,2.67
2018-08-11T05:24:43.472Z,2.90
2018-08-11T05:27:11.898Z,3.27
2018-08-11T05:29:40.388Z,2.70
2018-08-11T05:32:08.847Z,3.10
2018-08-11T05:34:37.219Z,2.87
2018-08-11T05:37:06.008Z,2.70
2018-08-11T05:39:34.508Z,2.90
2018-08-11T05:42:03.034Z,2.57
2018-08-11T05:44:31.580Z,2.87
2018-08-11T05:47:00.125Z,3.03
2018-08-11T05:49:28.525Z,2.70
2018-08-11T05:51:56.974Z,2.53
2018-08-11T05:54:25.380Z,2.77
2018-08-11T05:56:53.834Z,2.97
2018-08-11T05:59:22.312Z,2.77
2018-08-11T06:01:50.799Z,2.80
2018-08-11T06:04:19.161Z,2.57
2018-08-11T06:06:47.640Z,2.70
2018-08-11T06:09:16.051Z,2.40
2018-08-11T06:11:44.467Z,2.17
2018-08-11T06:14:12.937Z,2.70
2018-08-11T06:16:41.358Z,2.50
2018-08-11T06:19:09.819Z,2.80
2018-08-11T06:21:38.239Z,2.50
2018-08-11T06:24:06.775Z,2.30
2018-08-11T06:26:35.307Z,2.60
2018-08-11T06:29:03.801Z,2.50
2018-08-11T06:31:32.401Z,2.53
2018-08-11T06:34:00.698Z,2.77
2018-08-11T06:36:29.105Z,2.40
2018-08-11T06:38:57.573Z,2.60
2018-08-11T06:41:26.089Z,2.63
2018-08-11T06:43:54.567Z,2.40
2018-08-11T06:46:23.043Z,2.63
2018-08-11T06:48:51.414Z,2.60
2018-08-11T06:51:19.901Z,2.77
2018-08-11T06:53:48.371Z,2.40
2018-08-11T06:56:16.747Z,2.60
2018-08-11T06:58:45.211Z,2.70
2018-08-11T07:01:13.666Z,2.13
2018-08-11T07:03:42.132Z,1.80
2018-08-11T07:06:10.636Z,2.43
2018-08-11T07:08:39.126Z,2.17
2018-08-11T07:11:07.599Z,2.17
2018-08-11T07:13:36.060Z,2.37
2018-08-11T07:16:04.604Z,2.13
2018-08-11T07:18:33.126Z,2.17
2018-08-11T07:21:01.644Z,1.80
2018-08-11T07:23:30.078Z,1.97
2018-08-11T07:25:58.552Z,1.80
2018-08-11T07:28:26.980Z,1.97
2018-08-11T07:30:55.368Z,1.80
2018-08-11T07:33:23.784Z,2.27
2018-08-11T07:35:52.190Z,1.77
2018-08-11T07:38:20.672Z,1.93
2018-08-11T07:40:49.140Z,1.77
2018-08-11T07:43:17.614Z,1.40
2018-08-11T07:45:46.102Z,1.70
2018-08-11T07:48:14.576Z,1.70
2018-08-11T07:50:43.024Z,1.83
2018-08-11T07:53:11.475Z,1.53
2018-08-11T07:55:40.019Z,1.67
2018-08-11T07:58:08.483Z,1.57
2018-08-11T08:00:37.079Z,1.70
2018-08-11T08:03:06.037Z,2.20
2018-08-11T08:05:34.485Z,1.70
2018-08-11T08:08:02.983Z,1.70
2018-08-11T08:10:31.403Z,1.80
2018-08-11T08:12:59.899Z,1.70
2018-08-11T08:15:28.333Z,1.77
2018-08-11T08:17:56.740Z,1.63
2018-08-11T08:20:25.220Z,1.87
2018-08-11T08:22:53.649Z,1.97
2018-08-11T08:25:22.090Z,1.60
2018-08-11T08:27:50.530Z,1.97
2018-08-11T08:30:18.981Z,2.00
2018-08-11T08:32:47.397Z,1.90
2018-08-11T08:35:15.851Z,1.87
2018-08-11T08:37:44.326Z,2.00
2018-08-11T08:40:12.837Z,1.93
2018-08-11T08:42:41.282Z,1.73
2018-08-11T08:45:10.818Z,2.20
2018-08-11T08:47:39.392Z,2.10
2018-08-11T08:50:07.964Z,1.77
2018-08-11T08:52:36.396Z,1.80
2018-08-11T08:55:04.964Z,2.27
2018-08-11T08:57:33.446Z,1.80
2018-08-11T09:00:01.915Z,2.10
2018-08-11T09:02:30.390Z,2.13
2018-08-11T09:04:59.028Z,2.17
2018-08-11T09:07:27.411Z,1.80
2018-08-11T09:09:55.840Z,1.47
2018-08-11T09:12:24.364Z,2.00
2018-08-11T09:14:52.831Z,1.70
2018-08-11T09:17:21.318Z,1.90
2018-08-11T09:19:50.111Z,1.87
2018-08-11T09:22:18.499Z,1.87
2018-08-11T09:24:46.907Z,1.93
2018-08-11T09:27:15.357Z,2.23
2018-08-11T09:29:43.802Z,1.60
2018-08-11T09:32:12.195Z,1.60
2018-08-11T09:34:40.783Z,2.07
2018-08-11T09:37:09.282Z,2.30
2018-08-11T09:39:37.762Z,2.00
2018-08-11T09:42:06.173Z,2.03
2018-08-11T09:44:34.605Z,1.77
2018-08-11T09:47:03.119Z,2.30
2018-08-11T09:49:31.546Z,2.13
2018-08-11T09:51:59.980Z,2.00
2018-08-11T09:54:28.427Z,2.00
2018-08-11T09:56:56.872Z,1.70
2018-08-11T09:59:25.415Z,1.93
2018-08-11T10:01:59.257Z,1.60
2018-08-11T10:04:27.713Z,1.90
2018-08-11T10:06:56.114Z,2.10
2018-08-11T10:09:24.566Z,2.00
2018-08-11T10:11:53.098Z,1.60
2018-08-11T10:14:21.538Z,1.60
2018-08-11T10:16:50.041Z,1.87
2018-08-11T10:19:18.503Z,1.40
2018-08-11T10:21:47.026Z,1.90
2018-08-11T10:24:15.465Z,1.87
2018-08-11T10:26:43.943Z,1.60
2018-08-11T10:29:12.336Z,1.80
2018-08-11T10:31:40.809Z,2.20
2018-08-11T10:34:09.241Z,1.50
2018-08-11T10:36:37.709Z,1.47
2018-08-11T10:39:09.190Z,1.60
2018-08-11T10:41:37.591Z,1.73
2018-08-11T10:44:06.100Z,1.67
2018-08-11T10:46:34.584Z,1.80
2018-08-11T10:49:03.069Z,1.90
2018-08-11T10:51:31.646Z,1.60
2018-08-11T10:54:00.122Z,1.70
2018-08-11T10:56:28.626Z,2.03
2018-08-11T10:58:57.162Z,1.90
2018-08-11T11:01:25.687Z,1.70
2018-08-11T11:03:54.193Z,1.60
2018-08-11T11:06:23.091Z,1.60
2018-08-11T11:08:51.621Z,1.40
2018-08-11T11:11:20.208Z,1.60
2018-08-11T11:13:48.729Z,2.00
2018-08-11T11:16:17.309Z,1.60
2018-08-11T11:18:45.820Z,1.67
2018-08-11T11:21:14.308Z,1.70
2018-08-11T11:23:42.806Z,1.50
2018-08-11T11:26:11.200Z,1.70
2018-08-11T11:28:39.677Z,1.70
2018-08-11T11:31:08.143Z,1.83
2018-08-11T11:33:36.639Z,1.53
2018-08-11T11:36:05.067Z,1.70
2018-08-11T11:38:33.585Z,1.10
2018-08-11T11:41:02.088Z,1.77
2018-08-11T11:43:30.586Z,1.60
2018-08-11T11:45:59.103Z,1.80
2018-08-11T11:48:27.544Z,1.60
2018-08-11T11:50:56.028Z,1.50
2018-08-11T11:53:24.392Z,1.70
2018-08-11T11:55:52.921Z,1.37
2018-08-11T11:58:21.396Z,1.70
2018-08-11T12:00:49.936Z,1.90
2018-08-11T12:03:18.382Z,1.80
2018-08-11T12:05:46.828Z,1.57
2018-08-11T12:08:15.258Z,1.70
2018-08-11T12:10:43.705Z,1.90
2018-08-11T12:13:12.202Z,2.10
2018-08-11T12:15:40.316Z,1.63
2018-08-11T12:18:08.401Z,1.70
2018-08-11T12:20:36.484Z,1.63
2018-08-11T12:23:05.759Z,1.37
2018-08-11T12:25:33.851Z,1.67
2018-08-11T12:28:02.300Z,1.67
2018-08-11T12:30:30.726Z,1.87
2018-08-11T12:32:58.852Z,1.30
2018-08-11T12:35:27.075Z,1.10
2018-08-11T12:37:55.268Z,1.40
2018-08-11T12:40:23.422Z,0.87
2018-08-11T12:42:51.573Z,1.30
2018-08-11T12:45:19.784Z,1.30
2018-08-11T12:47:47.900Z,1.30
2018-08-11T12:50:16.070Z,1.03
2018-08-11T12:52:44.191Z,1.40
2018-08-11T12:55:12.304Z,1.33
2018-08-11T12:57:40.411Z,1.10
2018-08-11T13:00:09.615Z,1.30
2018-08-11T13:02:37.885Z,1.30
2018-08-11T13:05:06.119Z,1.20
2018-08-11T13:07:34.345Z,1.43
2018-08-11T13:10:02.505Z,1.47
2018-08-11T13:12:31.276Z,1.63
2018-08-11T13:14:59.988Z,1.03
2018-08-11T13:17:28.575Z,1.43
2018-08-11T13:19:57.039Z,1.07
2018-08-11T13:22:25.521Z,1.50
2018-08-11T13:24:54.109Z,1.30
2018-08-11T13:27:22.652Z,1.40
2018-08-11T13:29:51.227Z,1.43
2018-08-11T13:32:19.657Z,1.23
2018-08-11T13:34:48.275Z,1.63
2018-08-11T13:37:16.704Z,1.23
2018-08-11T13:39:49.387Z,1.30
2018-08-11T13:42:17.930Z,1.30
2018-08-11T13:44:46.436Z,1.20
2018-08-11T13:47:15.032Z,1.33
2018-08-11T13:49:43.992Z,1.30
2018-08-11T13:52:12.564Z,1.10
2018-08-11T13:54:41.060Z,1.37
2018-08-11T13:57:09.533Z,1.33
2018-08-11T13:59:38.036Z,1.20
2018-08-11T14:02:06.645Z,0.97
2018-08-11T14:04:35.398Z,1.00
2018-08-11T14:07:03.920Z,1.20
2018-08-11T14:09:32.390Z,1.00
2018-08-11T14:12:00.888Z,1.20
2018-08-11T14:14:29.361Z,1.00
2018-08-11T14:16:57.828Z,1.07
2018-08-11T14:19:26.313Z,1.00
2018-08-11T14:21:54.718Z,1.10
2018-08-11T14:24:23.299Z,1.00
2018-08-11T14:26:51.813Z,1.17
2018-08-11T14:29:20.288Z,1.07
2018-08-11T14:31:48.755Z,0.80
2018-08-11T14:34:17.247Z,1.20
2018-08-11T14:36:45.713Z,0.93
2018-08-11T14:39:14.260Z,1.10
2018-08-11T14:41:42.718Z,8.70
2018-08-11T14:44:11.192Z,1.90
2018-08-11T14:46:39.723Z,0.90
2018-08-11T14:49:08.163Z,1.10
2018-08-11T14:51:36.874Z,1.40
2018-08-11T14:54:05.330Z,1.10
2018-08-11T14:56:33.806Z,1.30
2018-08-11T14:59:02.222Z,1.30
2018-08-11T15:01:30.845Z,1.10
2018-08-11T15:03:59.726Z,1.30
2018-08-11T15:06:28.202Z,1.00
2018-08-11T15:08:56.692Z,1.30
2018-08-11T15:11:25.199Z,1.10
2018-08-11T15:13:53.808Z,0.97
2018-08-11T15:16:22.306Z,1.33
2018-08-11T15:18:50.912Z,0.90
2018-08-11T15:21:19.389Z,1.10
2018-08-11T15:23:47.829Z,0.93
2018-08-11T15:26:16.428Z,1.23
2018-08-11T15:28:44.952Z,0.90
2018-08-11T15:31:13.446Z,1.10
2018-08-11T15:33:42.303Z,1.30
2018-08-11T15:36:10.882Z,1.23
2018-08-11T15:38:40.140Z,0.80
2018-08-11T15:41:08.739Z,1.10
2018-08-11T15:43:37.332Z,1.00
2018-08-11T15:46:05.849Z,0.93
2018-08-11T15:48:34.480Z,1.13
2018-08-11T15:51:02.985Z,0.97
2018-08-11T15:53:32.217Z,1.13
2018-08-11T15:56:00.785Z,0.77
2018-08-11T15:58:29.219Z,1.00
2018-08-11T16:00:57.647Z,1.17
2018-08-11T16:03:26.082Z,0.90
2018-08-11T16:05:54.492Z,0.90
2018-08-11T16:08:22.663Z,0.90
2018-08-11T16:10:51.150Z,1.00
2018-08-11T16:13:19.544Z,0.90
2018-08-11T16:15:47.997Z,1.23
2018-08-11T16:18:16.451Z,1.07
2018-08-11T16:20:44.932Z,0.80
2018-08-11T16:23:13.570Z,1.13
2018-08-11T16:25:42.027Z,1.10
2018-08-11T16:28:10.429Z,1.10
2018-08-11T16:30:38.880Z,1.07
2018-08-11T16:33:07.400Z,0.80
2018-08-11T16:35:35.861Z,1.00
2018-08-11T16:38:04.496Z,0.97
2018-08-11T16:40:32.966Z,0.87
2018-08-11T16:43:01.376Z,1.07
2018-08-11T16:45:29.930Z,1.30
2018-08-11T16:47:58.526Z,1.00
2018-08-11T16:50:26.970Z,1.00
2018-08-11T16:52:55.372Z,1.53
2018-08-11T16:55:23.861Z,0.90
2018-08-11T16:57:52.275Z,1.30
2018-08-11T17:00:20.737Z,0.77
2018-08-11T17:02:49.285Z,1.30
2018-08-11T17:05:17.998Z,1.23
2018-08-11T17:07:46.883Z,1.07
2018-08-11T17:10:15.461Z,1.07
2018-08-11T17:12:43.929Z,1.10
2018-08-11T17:15:12.110Z,1.23
2018-08-11T17:17:40.494Z,1.30
2018-08-11T17:20:09.060Z,1.00
2018-08-11T17:22:37.289Z,1.40
2018-08-11T17:25:06.416Z,1.23
2018-08-11T17:27:34.899Z,1.33
2018-08-11T17:30:03.110Z,1.10
2018-08-11T17:32:31.545Z,1.00
2018-08-11T17:34:59.872Z,1.50
2018-08-11T17:37:29.712Z,1.33
2018-08-11T17:39:58.084Z,1.20
2018-08-11T17:42:26.178Z,1.40
2018-08-11T17:44:54.428Z,1.30
2018-08-11T17:47:23.026Z,1.20
2018-08-11T17:49:51.163Z,1.70
2018-08-11T17:52:20.444Z,1.10
2018-08-11T17:54:48.805Z,1.60
2018-08-11T17:57:16.967Z,1.10
2018-08-11T17:59:45.084Z,1.20
2018-08-11T18:02:13.183Z,1.40
2018-08-11T18:04:41.635Z,1.40
2018-08-11T18:07:09.922Z,1.20
2018-08-11T18:09:38.095Z,1.50
2018-08-11T18:12:07.032Z,1.40
2018-08-11T18:14:35.191Z,1.23
2018-08-11T18:17:03.337Z,1.40
2018-08-11T18:19:31.495Z,1.20
2018-08-11T18:21:59.660Z,1.50
2018-08-11T18:24:27.777Z,1.40
2018-08-11T18:26:55.920Z,1.77
2018-08-11T18:29:24.168Z,1.30
2018-08-11T18:31:52.624Z,1.60
2018-08-11T18:34:21.113Z,1.60
2018-08-11T18:36:49.512Z,1.50
2018-08-11T18:39:18.006Z,1.60
2018-08-11T18:41:46.492Z,1.70
2018-08-11T18:44:15.268Z,1.43
2018-08-11T18:46:43.744Z,1.33
2018-08-11T18:49:12.260Z,1.80
2018-08-11T18:51:40.837Z,1.50
2018-08-11T18:54:09.432Z,1.60
2018-08-11T18:56:37.857Z,1.70
2018-08-11T18:59:06.836Z,1.60
2018-08-11T19:01:35.333Z,1.70
2018-08-11T19:04:03.881Z,2.00
2018-08-11T19:06:32.367Z,1.87
2018-08-11T19:09:00.964Z,1.97
2018-08-11T19:11:29.444Z,1.83
2018-08-11T19:13:57.940Z,1.63
2018-08-11T19:16:26.436Z,1.70
2018-08-11T19:18:54.952Z,1.90
2018-08-11T19:21:23.477Z,1.60
2018-08-11T19:23:51.938Z,2.10
2018-08-11T19:26:20.621Z,2.00
2018-08-11T19:28:49.795Z,2.00
2018-08-11T19:31:18.976Z,2.00
2018-08-11T19:33:47.752Z,2.13
2018-08-11T19:36:16.941Z,2.30
2018-08-11T19:38:45.512Z,2.90
2018-08-11T19:41:14.109Z,2.77
2018-08-11T19:43:42.569Z,2.43
2018-08-11T19:46:11.983Z,2.60
2018-08-11T19:48:41.761Z,2.50
2018-08-11T19:51:11.790Z,2.70
2018-08-11T19:53:41.308Z,2.70
2018-08-11T19:56:10.758Z,2.37
2018-08-11T19:58:40.388Z,2.30
2018-08-11T20:01:10.399Z,2.60
2018-08-11T20:03:39.377Z,2.30
2018-08-11T20:06:08.169Z,2.60
2018-08-11T20:08:37.165Z,2.30
2018-08-11T20:11:05.675Z,2.60
2018-08-11T20:13:34.974Z,2.73
2018-08-11T20:16:03.760Z,2.60
2018-08-11T20:18:32.614Z,2.63
2018-08-11T20:21:01.215Z,2.80
2018-08-11T20:23:29.808Z,2.77
2018-08-11T20:25:58.317Z,2.30
2018-08-11T20:28:26.782Z,3.13
2018-08-11T20:30:55.313Z,2.87
2018-08-11T20:33:23.832Z,2.50
2018-08-11T20:35:52.318Z,2.70
2018-08-11T20:38:20.804Z,2.83
2018-08-11T20:40:49.482Z,2.60
2018-08-11T20:43:17.932Z,2.60
2018-08-11T20:45:46.382Z,2.63
2018-08-11T20:48:14.839Z,2.50
2018-08-11T20:50:43.420Z,2.87
2018-08-11T20:53:11.890Z,2.97
2018-08-11T20:55:40.713Z,3.00
2018-08-11T20:58:09.199Z,3.00
2018-08-11T21:00:37.716Z,3.20
2018-08-11T21:03:08.918Z,3.03
2018-08-11T21:05:37.564Z,3.60
2018-08-11T21:08:06.847Z,3.70
2018-08-11T21:10:35.488Z,4.07
2018-08-11T21:13:04.293Z,3.30
2018-08-11T21:15:32.913Z,3.60
2018-08-11T21:18:01.333Z,3.57
2018-08-11T21:20:29.941Z,3.63
2018-08-11T21:22:58.425Z,3.83
2018-08-11T21:25:26.953Z,4.07
2018-08-11T21:27:55.516Z,4.40
2018-08-11T21:30:24.037Z,5.47
2018-08-11T21:32:52.533Z,5.40
2018-08-11T21:35:20.960Z,5.70
2018-08-11T21:37:49.401Z,5.90
2018-08-11T21:40:17.968Z,6.47
2018-08-11T21:42:46.432Z,6.30
2018-08-11T21:45:14.929Z,6.77
2018-08-11T21:47:43.418Z,5.97
2018-08-11T21:50:12.045Z,5.63
2018-08-11T21:52:40.805Z,5.73
2018-08-11T21:55:09.809Z,5.90
2018-08-11T21:57:38.873Z,5.37
2018-08-11T22:00:23.052Z,5.10
2018-08-11T22:02:51.698Z,4.77
2018-08-11T22:05:20.221Z,4.60
2018-08-11T22:07:48.696Z,4.43
2018-08-11T22:10:17.249Z,4.97
2018-08-11T22:12:45.808Z,5.07
2018-08-11T22:15:16.411Z,5.07
2018-08-11T22:17:45.038Z,5.03
2018-08-11T22:20:13.806Z,5.20
2018-08-11T22:22:42.655Z,5.90
2018-08-11T22:25:11.835Z,6.80
2018-08-11T22:27:40.621Z,7.13
2018-08-11T22:30:09.826Z,7.00
2018-08-11T22:32:38.609Z,6.00
2018-08-11T22:35:09.768Z,4.70
2018-08-11T22:37:38.422Z,5.00
2018-08-11T22:40:07.686Z,4.20
2018-08-11T22:42:37.048Z,4.90
2018-08-11T22:45:07.463Z,4.87
2018-08-11T22:47:36.141Z,4.27
2018-08-11T22:50:06.538Z,4.33
2018-08-11T22:52:35.365Z,5.50
2018-08-11T22:55:04.662Z,5.33
2018-08-11T22:57:33.287Z,4.60
2018-08-11T23:00:02.288Z,5.10
2018-08-11T23:02:31.065Z,4.43
2018-08-11T23:04:59.582Z,4.10
2018-08-11T23:07:28.148Z,3.83
2018-08-11T23:09:56.729Z,3.30
2018-08-11T23:12:25.344Z,4.20
2018-08-11T23:14:53.943Z,3.90
2018-08-11T23:17:22.388Z,3.87
2018-08-11T23:19:52.323Z,3.83
2018-08-11T23:22:20.972Z,3.67
2018-08-11T23:24:49.577Z,4.00
2018-08-11T23:27:18.041Z,3.90
2018-08-11T23:29:47.715Z,3.83
2018-08-11T23:32:16.270Z,3.90
2018-08-11T23:34:44.734Z,3.90
2018-08-11T23:37:14.045Z,3.93
2018-08-11T23:39:43.515Z,3.40
2018-08-11T23:42:12.120Z,4.13
2018-08-11T23:44:40.812Z,3.53
2018-08-11T23:47:09.499Z,3.33
2018-08-11T23:49:37.912Z,3.57
2018-08-11T23:52:06.961Z,3.93
2018-08-11T23:54:35.441Z,3.80
2018-08-11T23:57:04.324Z,3.80
2018-08-11T23:59:34.039Z,3.80
